createdAt,value
2022-09-09T00:00:49.238Z,45.53
2022-09-09T00:03:21.955Z,45.20
2022-09-09T00:06:01.110Z,44.83
2022-09-09T00:08:39.859Z,42.73
2022-09-09T00:11:10.400Z,40.60
2022-09-09T00:13:42.928Z,44.17
2022-09-09T00:16:18.151Z,39.93
2022-09-09T00:18:57.462Z,38.37
2022-09-09T00:21:34.186Z,40.50
2022-09-09T00:24:10.866Z,41.23
2022-09-09T00:26:44.222Z,37.70
2022-09-09T00:29:20.728Z,36.90
2022-09-09T00:31:48.578Z,40.63
2022-09-09T00:34:19.808Z,35.90
2022-09-09T00:36:52.920Z,38.17
2022-09-09T00:39:39.479Z,38.93
2022-09-09T00:42:15.889Z,40.50
2022-09-09T00:44:55.049Z,38.13
2022-09-09T00:47:40.873Z,40.47
2022-09-09T00:50:25.706Z,41.60
2022-09-09T00:53:04.166Z,46.80
2022-09-09T00:55:42.268Z,39.37
2022-09-09T00:58:11.569Z,39.30
2022-09-09T01:00:44.939Z,48.17
2022-09-09T01:03:24.948Z,36.57
2022-09-09T01:06:03.749Z,39.57
2022-09-09T01:08:59.298Z,40.20
2022-09-09T01:11:30.260Z,39.53
2022-09-09T01:14:06.098Z,36.63
2022-09-09T01:16:36.103Z,39.23
2022-09-09T01:19:08.374Z,37.20
2022-09-09T01:21:46.253Z,36.43
2022-09-09T01:24:27.738Z,59.73
2022-09-09T01:27:12.398Z,36.63
2022-09-09T01:29:41.200Z,41.43
2022-09-09T01:32:41.730Z,32.77
2022-09-09T01:35:16.986Z,30.87
2022-09-09T01:37:45.022Z,35.47
2022-09-09T01:40:13.082Z,28.17
2022-09-09T01:42:42.709Z,37.07
2022-09-09T01:45:11.817Z,32.37
2022-09-09T01:47:40.158Z,33.53
2022-09-09T01:50:20.168Z,32.00
2022-09-09T01:52:52.094Z,33.03
2022-09-09T01:55:30.068Z,31.80
2022-09-09T01:58:16.466Z,33.80
2022-09-09T02:00:57.794Z,30.33
2022-09-09T02:03:29.548Z,37.57
2022-09-09T02:06:16.034Z,31.83
2022-09-09T02:08:47.466Z,31.60
2022-09-09T02:11:17.637Z,30.80
2022-09-09T02:14:07.923Z,27.83
2022-09-09T02:16:42.829Z,29.73
2022-09-09T02:19:16.514Z,28.83
2022-09-09T02:21:58.703Z,29.00
2022-09-09T02:24:28.108Z,29.13
2022-09-09T02:27:10.954Z,27.03
2022-09-09T02:29:43.131Z,28.50
2022-09-09T02:32:16.943Z,31.27
2022-09-09T02:34:48.806Z,25.70
2022-09-09T02:37:21.097Z,28.27
2022-09-09T02:39:53.137Z,25.53
2022-09-09T02:42:23.508Z,27.33
2022-09-09T02:44:55.100Z,25.63
2022-09-09T02:47:31.684Z,27.03
2022-09-09T02:50:13.432Z,25.67
2022-09-09T02:52:52.424Z,27.50
2022-09-09T02:55:28.244Z,26.53
2022-09-09T02:58:00.646Z,32.77
2022-09-09T03:00:32.000Z,31.73
2022-09-09T03:03:02.742Z,31.53
2022-09-09T03:05:30.610Z,27.97
2022-09-09T03:07:59.211Z,29.97
2022-09-09T03:10:27.428Z,30.63
2022-09-09T03:12:56.257Z,30.97
2022-09-09T03:15:24.257Z,34.03
2022-09-09T03:17:54.152Z,30.90
2022-09-09T03:20:22.603Z,35.00
2022-09-09T03:22:52.050Z,34.90
2022-09-09T03:25:19.956Z,37.80
2022-09-09T03:27:48.179Z,33.90
2022-09-09T03:30:16.519Z,32.53
2022-09-09T03:32:48.774Z,32.13
2022-09-09T03:35:18.534Z,29.90
2022-09-09T03:37:46.478Z,34.70
2022-09-09T03:40:15.874Z,38.90
2022-09-09T03:42:46.089Z,33.80
2022-09-09T03:45:13.965Z,29.37
2022-09-09T03:47:42.978Z,33.70
2022-09-09T03:50:11.985Z,31.67
2022-09-09T03:52:46.916Z,33.60
2022-09-09T03:55:20.418Z,34.47
2022-09-09T03:57:48.436Z,31.90
2022-09-09T04:00:16.828Z,31.30
2022-09-09T04:02:46.608Z,32.87
2022-09-09T04:05:16.974Z,30.97
2022-09-09T04:07:48.657Z,30.83
2022-09-09T04:10:16.980Z,28.70
2022-09-09T04:12:48.994Z,31.20
2022-09-09T04:15:19.213Z,29.77
2022-09-09T04:17:47.142Z,29.60
2022-09-09T04:20:14.934Z,30.20
2022-09-09T04:22:42.929Z,33.07
2022-09-09T04:25:12.056Z,32.10
2022-09-09T04:27:39.786Z,33.33
2022-09-09T04:30:09.588Z,30.07
2022-09-09T04:32:38.118Z,33.73
2022-09-09T04:35:06.281Z,33.17
2022-09-09T04:37:35.693Z,30.47
2022-09-09T04:40:04.121Z,31.47
2022-09-09T04:42:36.901Z,29.57
2022-09-09T04:45:05.850Z,31.10
2022-09-09T04:47:33.801Z,31.37
2022-09-09T04:50:01.699Z,30.43
2022-09-09T04:52:30.358Z,28.83
2022-09-09T04:54:58.178Z,29.67
2022-09-09T04:57:26.110Z,30.93
2022-09-09T04:59:55.186Z,29.10
2022-09-09T05:02:23.022Z,29.13
2022-09-09T05:04:51.581Z,27.73
2022-09-09T05:07:19.863Z,30.50
2022-09-09T05:09:50.167Z,28.50
2022-09-09T05:12:18.574Z,28.50
2022-09-09T05:14:51.821Z,28.10
2022-09-09T05:17:20.947Z,27.23
2022-09-09T05:19:50.068Z,25.37
2022-09-09T05:22:22.136Z,29.40
2022-09-09T05:24:51.679Z,24.90
2022-09-09T05:27:20.295Z,24.53
2022-09-09T05:29:49.816Z,22.80
2022-09-09T05:32:17.999Z,24.63
2022-09-09T05:34:50.456Z,25.47
2022-09-09T05:37:19.192Z,22.10
2022-09-09T05:39:47.346Z,22.90
2022-09-09T05:42:15.376Z,21.07
2022-09-09T05:44:43.423Z,21.57
2022-09-09T05:47:11.566Z,21.23
2022-09-09T05:49:39.576Z,19.23
2022-09-09T05:52:08.656Z,19.40
2022-09-09T05:54:36.541Z,19.87
2022-09-09T05:57:04.751Z,17.40
2022-09-09T05:59:33.150Z,16.30
2022-09-09T06:02:02.009Z,16.77
2022-09-09T06:04:35.821Z,16.20
2022-09-09T06:07:04.567Z,19.87
2022-09-09T06:09:33.678Z,17.03
2022-09-09T06:12:01.544Z,17.57
2022-09-09T06:14:29.299Z,17.20
2022-09-09T06:17:00.226Z,15.43
2022-09-09T06:19:31.724Z,16.37
2022-09-09T06:22:00.603Z,16.80
2022-09-09T06:24:31.279Z,13.23
2022-09-09T06:27:01.583Z,13.93
2022-09-09T06:29:33.831Z,14.00
2022-09-09T06:32:03.660Z,14.10
2022-09-09T06:34:32.241Z,13.00
2022-09-09T06:37:01.140Z,13.17
2022-09-09T06:39:36.330Z,12.70
2022-09-09T06:42:05.846Z,11.97
2022-09-09T06:44:56.463Z,11.83
2022-09-09T06:47:50.462Z,13.57
2022-09-09T06:50:19.012Z,10.30
2022-09-09T06:52:48.532Z,11.37
2022-09-09T06:55:16.904Z,9.60
2022-09-09T06:57:46.036Z,11.93
2022-09-09T07:00:19.157Z,11.07
2022-09-09T07:02:47.646Z,11.00
2022-09-09T07:05:16.318Z,9.97
2022-09-09T07:07:45.299Z,9.13
2022-09-09T07:10:15.434Z,8.77
2022-09-09T07:12:43.192Z,8.83
2022-09-09T07:15:15.000Z,9.30
2022-09-09T07:17:45.647Z,11.07
2022-09-09T07:20:13.549Z,10.70
2022-09-09T07:22:41.836Z,9.63
2022-09-09T07:25:10.892Z,8.37
2022-09-09T07:27:39.047Z,9.23
2022-09-09T07:30:08.549Z,9.03
2022-09-09T07:32:38.089Z,9.17
2022-09-09T07:35:08.843Z,8.47
2022-09-09T07:37:39.401Z,9.47
2022-09-09T07:40:08.333Z,7.90
2022-09-09T07:42:36.364Z,6.93
2022-09-09T07:45:05.111Z,9.03
2022-09-09T07:47:33.239Z,7.80
2022-09-09T07:50:02.494Z,7.47
2022-09-09T07:52:32.698Z,7.50
2022-09-09T07:55:05.447Z,6.13
2022-09-09T07:57:33.862Z,5.77
2022-09-09T08:00:03.117Z,6.27
2022-09-09T08:02:40.238Z,5.83
2022-09-09T08:05:10.822Z,8.03
2022-09-09T08:07:41.261Z,7.57
2022-09-09T08:10:09.383Z,6.50
2022-09-09T08:12:38.617Z,5.83
2022-09-09T08:15:07.567Z,6.23
2022-09-09T08:17:35.675Z,6.37
2022-09-09T08:20:08.113Z,6.97
2022-09-09T08:22:38.617Z,5.47
2022-09-09T08:25:09.369Z,4.90
2022-09-09T08:27:39.036Z,5.30
2022-09-09T08:30:08.650Z,5.67
2022-09-09T08:32:36.575Z,5.57
2022-09-09T08:35:08.103Z,4.63
2022-09-09T08:37:37.854Z,4.33
2022-09-09T08:40:07.218Z,5.47
2022-09-09T08:42:49.493Z,4.83
2022-09-09T08:45:29.173Z,8.07
2022-09-09T08:48:23.668Z,3.97
2022-09-09T08:50:54.011Z,4.87
2022-09-09T08:53:32.265Z,4.23
2022-09-09T08:56:04.816Z,4.87
2022-09-09T08:58:50.820Z,3.90
2022-09-09T09:01:43.885Z,3.87
2022-09-09T09:04:38.429Z,3.53
2022-09-09T09:07:17.699Z,4.97
2022-09-09T09:09:54.527Z,3.07
2022-09-09T09:12:25.918Z,3.33
2022-09-09T09:14:56.432Z,3.17
2022-09-09T09:17:28.380Z,2.93
2022-09-09T09:19:56.302Z,3.53
2022-09-09T09:22:30.134Z,3.20
2022-09-09T09:25:11.632Z,3.53
2022-09-09T09:27:53.794Z,3.07
2022-09-09T09:30:29.544Z,2.90
2022-09-09T09:33:05.378Z,2.80
2022-09-09T09:35:37.329Z,2.70
2022-09-09T09:41:07.726Z,2.60
2022-09-09T09:43:37.750Z,3.37
2022-09-09T09:46:24.636Z,3.40
2022-09-09T09:49:01.273Z,2.33
2022-09-09T09:51:32.874Z,3.47
2022-09-09T09:54:28.446Z,2.47
2022-09-09T09:57:10.916Z,3.03
2022-09-09T09:59:40.987Z,2.80
2022-09-09T10:02:25.679Z,2.90
2022-09-09T10:05:14.823Z,2.03
2022-09-09T10:07:46.787Z,3.60
2022-09-09T10:10:20.857Z,2.87
2022-09-09T10:13:01.764Z,2.77
2022-09-09T10:15:37.088Z,3.37
2022-09-09T10:18:17.952Z,3.30
2022-09-09T10:20:54.861Z,3.07
2022-09-09T10:23:39.168Z,2.87
2022-09-09T10:26:18.313Z,3.23
2022-09-09T10:29:06.826Z,3.00
2022-09-09T10:31:42.844Z,2.20
2022-09-09T10:34:19.383Z,5.17
2022-09-09T10:36:51.288Z,1.73
2022-09-09T10:39:33.622Z,4.30
2022-09-09T10:42:08.094Z,3.00
2022-09-09T10:44:50.006Z,2.50
2022-09-09T10:47:33.901Z,2.50
2022-09-09T10:50:16.549Z,1.90
2022-09-09T10:52:55.378Z,2.23
2022-09-09T10:55:29.931Z,3.30
2022-09-09T10:58:01.775Z,2.17
2022-09-09T11:00:41.119Z,1.67
2022-09-09T11:03:15.070Z,3.67
2022-09-09T11:05:45.813Z,2.10
2022-09-09T11:08:19.680Z,2.17
2022-09-09T11:10:56.218Z,1.97
2022-09-09T11:13:27.957Z,2.10
2022-09-09T11:16:03.689Z,2.80
2022-09-09T11:18:33.748Z,2.03
2022-09-09T11:21:05.346Z,3.13
2022-09-09T11:23:42.760Z,5.40
2022-09-09T11:26:16.229Z,4.63
2022-09-09T11:29:02.827Z,5.47
2022-09-09T11:31:46.504Z,4.23
2022-09-09T11:37:23.761Z,2.23
2022-09-09T11:40:18.393Z,2.97
2022-09-09T11:42:46.196Z,2.13
2022-09-09T11:45:24.639Z,2.10
2022-09-09T11:47:58.545Z,2.67
2022-09-09T11:50:32.904Z,2.17
2022-09-09T11:53:24.585Z,1.93
2022-09-09T11:56:15.533Z,2.13
2022-09-09T11:58:46.461Z,1.80
2022-09-09T12:01:31.866Z,1.60
2022-09-09T12:04:23.389Z,1.27
2022-09-09T12:06:55.285Z,1.90
2022-09-09T12:09:28.915Z,1.53
2022-09-09T12:12:07.820Z,1.87
2022-09-09T12:14:40.444Z,2.30
2022-09-09T12:17:20.323Z,2.57
2022-09-09T12:19:50.191Z,3.93
2022-09-09T12:22:34.597Z,2.30
2022-09-09T12:25:23.254Z,2.23
2022-09-09T12:28:03.812Z,2.40
2022-09-09T12:30:37.004Z,1.77
2022-09-09T12:33:12.426Z,3.00
2022-09-09T12:35:44.129Z,2.47
2022-09-09T12:38:16.845Z,2.27
2022-09-09T12:40:44.713Z,2.17
2022-09-09T12:43:22.082Z,2.70
2022-09-09T12:45:51.325Z,2.30
2022-09-09T12:48:21.774Z,3.13
2022-09-09T12:50:52.702Z,2.60
2022-09-09T12:53:27.139Z,1.93
2022-09-09T12:56:00.122Z,2.93
2022-09-09T12:58:33.552Z,2.70
2022-09-09T13:01:05.969Z,2.30
2022-09-09T13:03:37.151Z,2.27
2022-09-09T13:06:15.883Z,1.83
2022-09-09T13:08:44.520Z,3.30
2022-09-09T13:11:16.456Z,4.57
2022-09-09T13:13:45.124Z,2.70
2022-09-09T13:16:23.867Z,2.23
2022-09-09T13:18:52.027Z,1.97
2022-09-09T13:21:21.533Z,3.17
2022-09-09T13:23:53.093Z,3.13
2022-09-09T13:26:26.686Z,2.20
2022-09-09T13:28:55.466Z,2.23
2022-09-09T13:31:25.490Z,2.37
2022-09-09T13:33:54.055Z,3.23
2022-09-09T13:36:32.900Z,3.60
2022-09-09T13:39:02.365Z,2.50
2022-09-09T13:41:33.715Z,3.53
2022-09-09T13:44:02.649Z,2.83
2022-09-09T13:46:35.328Z,2.10
2022-09-09T13:49:19.588Z,2.67
2022-09-09T13:51:51.563Z,3.20
2022-09-09T13:54:20.980Z,2.97
2022-09-09T13:56:50.556Z,2.30
2022-09-09T13:59:20.740Z,5.03
2022-09-09T14:01:50.006Z,2.80
2022-09-09T14:04:17.751Z,2.70
2022-09-09T14:06:45.810Z,3.63
2022-09-09T14:09:18.193Z,3.20
2022-09-09T14:11:47.315Z,4.03
2022-09-09T14:14:15.132Z,3.00
2022-09-09T14:16:42.887Z,3.10
2022-09-09T14:19:11.090Z,2.93
2022-09-09T14:21:38.861Z,2.77
2022-09-09T14:24:07.009Z,6.43
2022-09-09T14:26:36.093Z,3.60
2022-09-09T14:29:04.074Z,3.43
2022-09-09T14:31:31.978Z,3.10
2022-09-09T14:33:59.827Z,3.17
2022-09-09T14:36:27.694Z,3.60
2022-09-09T14:38:55.405Z,3.80
2022-09-09T14:41:23.792Z,3.23
2022-09-09T14:43:53.264Z,4.70
2022-09-09T14:46:21.918Z,3.60
2022-09-09T14:48:50.377Z,3.20
2022-09-09T14:51:20.384Z,2.70
2022-09-09T14:53:48.826Z,3.37
2022-09-09T14:56:19.756Z,3.13
2022-09-09T14:58:48.530Z,2.27
2022-09-09T15:01:19.686Z,2.37
2022-09-09T15:03:52.849Z,2.20
2022-09-09T15:06:21.716Z,2.47
2022-09-09T15:08:51.759Z,2.73
2022-09-09T15:11:19.794Z,4.10
2022-09-09T15:13:48.045Z,4.37
2022-09-09T15:16:19.088Z,3.23
2022-09-09T15:18:48.670Z,2.47
2022-09-09T15:21:19.915Z,3.90
2022-09-09T15:23:48.508Z,3.27
2022-09-09T15:26:16.474Z,3.93
2022-09-09T15:28:46.440Z,3.03
2022-09-09T15:31:19.370Z,2.77
2022-09-09T15:33:49.919Z,3.70
2022-09-09T15:36:19.476Z,2.90
2022-09-09T15:38:47.574Z,6.57
2022-09-09T15:41:15.965Z,3.70
2022-09-09T15:43:46.791Z,2.83
2022-09-09T15:46:34.282Z,3.23
2022-09-09T15:49:06.604Z,2.80
2022-09-09T15:51:43.710Z,2.87
2022-09-09T15:54:14.069Z,3.70
2022-09-09T15:56:42.805Z,3.97
2022-09-09T15:59:10.902Z,3.17
2022-09-09T16:01:41.311Z,3.43
2022-09-09T16:04:09.600Z,2.83
2022-09-09T16:06:37.353Z,2.77
2022-09-09T16:09:07.273Z,5.00
2022-09-09T16:11:36.860Z,5.60
2022-09-09T16:14:06.204Z,3.10
2022-09-09T16:16:35.945Z,4.10
2022-09-09T16:19:08.166Z,3.07
2022-09-09T16:21:40.623Z,2.87
2022-09-09T16:24:10.655Z,3.80
2022-09-09T16:26:40.272Z,2.97
2022-09-09T16:29:08.181Z,4.07
2022-09-09T16:31:36.126Z,2.90
2022-09-09T16:34:06.315Z,4.20
2022-09-09T16:36:35.890Z,3.83
2022-09-09T16:39:06.824Z,3.03
2022-09-09T16:41:35.354Z,3.07
2022-09-09T16:44:05.083Z,2.87
2022-09-09T16:46:34.933Z,3.60
2022-09-09T16:49:05.681Z,3.70
2022-09-09T16:51:36.627Z,3.60
2022-09-09T16:54:07.681Z,2.77
2022-09-09T16:56:37.868Z,3.47
2022-09-09T16:59:07.518Z,3.07
2022-09-09T17:01:38.307Z,2.47
2022-09-09T17:04:10.109Z,2.27
2022-09-09T17:06:39.398Z,2.03
2022-09-09T17:09:09.545Z,2.57
2022-09-09T17:11:37.613Z,1.77
2022-09-09T17:14:06.225Z,2.00
2022-09-09T17:16:35.883Z,2.73
2022-09-09T17:19:05.660Z,3.07
2022-09-09T17:21:34.927Z,2.83
2022-09-09T17:24:03.200Z,2.27
2022-09-09T17:26:33.933Z,2.80
2022-09-09T17:29:02.471Z,2.10
2022-09-09T17:31:32.237Z,2.93
2022-09-09T17:34:00.501Z,2.20
2022-09-09T17:36:30.049Z,3.07
2022-09-09T17:39:00.618Z,3.77
2022-09-09T17:41:30.580Z,4.20
2022-09-09T17:43:59.350Z,2.73
2022-09-09T17:46:28.728Z,2.33
2022-09-09T17:48:59.049Z,3.53
2022-09-09T17:51:30.607Z,2.40
2022-09-09T17:54:01.762Z,2.43
2022-09-09T17:56:32.558Z,2.97
2022-09-09T17:59:01.749Z,3.03
2022-09-09T18:01:31.841Z,4.53
2022-09-09T18:04:01.915Z,3.73
2022-09-09T18:06:33.713Z,4.43
2022-09-09T18:09:05.292Z,4.40
2022-09-09T18:11:35.385Z,5.03
2022-09-09T18:14:05.009Z,5.27
2022-09-09T18:16:36.167Z,5.07
2022-09-09T18:19:06.492Z,5.17
2022-09-09T18:21:35.501Z,4.93
2022-09-09T18:24:07.547Z,4.20
2022-09-09T18:26:36.370Z,4.67
2022-09-09T18:29:07.058Z,3.53
2022-09-09T18:31:37.715Z,4.40
2022-09-09T18:34:07.596Z,2.90
2022-09-09T18:36:38.060Z,3.17
2022-09-09T18:39:08.727Z,3.53
2022-09-09T18:41:38.230Z,3.43
2022-09-09T18:44:08.177Z,4.73
2022-09-09T18:46:37.942Z,3.00
2022-09-09T18:49:06.432Z,6.63
2022-09-09T18:51:35.288Z,3.77
2022-09-09T18:54:05.518Z,3.33
2022-09-09T18:56:35.510Z,5.27
2022-09-09T18:59:07.310Z,4.70
2022-09-09T19:01:36.447Z,3.83
2022-09-09T19:04:05.987Z,7.17
2022-09-09T19:06:39.290Z,5.67
2022-09-09T19:09:07.179Z,4.43
2022-09-09T19:11:36.251Z,4.20
2022-09-09T19:14:06.076Z,6.83
2022-09-09T19:16:35.844Z,5.70
2022-09-09T19:19:06.149Z,6.73
2022-09-09T19:21:36.524Z,5.80
2022-09-09T19:24:06.949Z,4.90
2022-09-09T19:26:40.597Z,6.10
2022-09-09T19:29:10.044Z,6.00
2022-09-09T19:31:38.093Z,4.87
2022-09-09T19:34:06.060Z,4.47
2022-09-09T19:36:34.122Z,4.73
2022-09-09T19:39:03.186Z,5.93
2022-09-09T19:41:32.369Z,4.57
2022-09-09T19:44:03.218Z,6.13
2022-09-09T19:46:32.915Z,4.63
2022-09-09T19:49:01.642Z,4.63
2022-09-09T19:51:31.218Z,4.30
2022-09-09T19:54:02.665Z,4.07
2022-09-09T19:56:31.502Z,5.13
2022-09-09T19:59:01.013Z,4.43
2022-09-09T20:01:30.839Z,6.47
2022-09-09T20:04:01.154Z,4.63
2022-09-09T20:06:32.376Z,6.17
2022-09-09T20:09:00.764Z,6.80
2022-09-09T20:11:29.371Z,5.30
2022-09-09T20:13:57.833Z,6.10
2022-09-09T20:16:28.820Z,5.03
2022-09-09T20:18:58.344Z,4.83
2022-09-09T20:21:28.175Z,5.27
2022-09-09T20:23:56.407Z,4.40
2022-09-09T20:26:26.144Z,6.43
2022-09-09T20:28:55.317Z,5.07
2022-09-09T20:31:24.748Z,4.67
2022-09-09T20:33:55.441Z,4.30
2022-09-09T20:36:26.542Z,3.90
2022-09-09T20:38:58.595Z,5.80
2022-09-09T20:41:29.879Z,3.60
2022-09-09T20:44:01.427Z,4.03
2022-09-09T20:46:33.018Z,4.07
2022-09-09T20:49:03.251Z,4.60
2022-09-09T20:51:33.060Z,3.70
2022-09-09T20:54:03.775Z,3.80
2022-09-09T20:56:33.705Z,3.93
2022-09-09T20:59:02.651Z,4.27
2022-09-09T21:01:30.782Z,4.73
2022-09-09T21:03:59.971Z,4.53
2022-09-09T21:06:29.078Z,4.13
2022-09-09T21:08:57.033Z,3.27
2022-09-09T21:11:24.945Z,3.53
2022-09-09T21:13:52.678Z,3.50
2022-09-09T21:16:21.172Z,3.57
2022-09-09T21:18:49.791Z,3.30
2022-09-09T21:21:19.087Z,4.73
2022-09-09T21:23:48.773Z,3.70
2022-09-09T21:26:17.751Z,3.63
2022-09-09T21:28:45.478Z,3.80
2022-09-09T21:31:15.776Z,3.43
2022-09-09T21:33:43.601Z,4.13
2022-09-09T21:36:12.386Z,3.43
2022-09-09T21:38:40.958Z,4.47
2022-09-09T21:41:12.782Z,6.03
2022-09-09T21:43:41.789Z,5.03
2022-09-09T21:46:10.120Z,5.10
2022-09-09T21:48:38.285Z,4.93
2022-09-09T21:51:08.209Z,3.50
2022-09-09T21:53:36.486Z,3.80
2022-09-09T21:56:07.102Z,5.03
2022-09-09T21:58:36.859Z,4.00
2022-09-09T22:01:10.738Z,3.70
2022-09-09T22:03:39.604Z,4.00
2022-09-09T22:06:08.358Z,3.47
2022-09-09T22:08:36.703Z,3.53
2022-09-09T22:11:09.394Z,5.20
2022-09-09T22:13:39.130Z,4.20
2022-09-09T22:16:09.292Z,5.20
2022-09-09T22:18:37.655Z,5.17
2022-09-09T22:21:07.364Z,4.40
2022-09-09T22:23:36.336Z,4.30
2022-09-09T22:26:04.180Z,4.20
2022-09-09T22:28:32.310Z,4.23
2022-09-09T22:31:01.393Z,4.53
2022-09-09T22:33:29.535Z,4.03
2022-09-09T22:35:57.235Z,4.40
2022-09-09T22:38:25.037Z,5.00
2022-09-09T22:40:53.363Z,5.90
2022-09-09T22:43:22.627Z,4.23
2022-09-09T22:45:50.761Z,4.87
2022-09-09T22:48:19.860Z,4.37
2022-09-09T22:50:48.008Z,4.13
2022-09-09T22:53:17.337Z,3.90
2022-09-09T22:55:56.366Z,4.17
2022-09-09T22:58:24.096Z,6.23
2022-09-09T23:00:52.226Z,4.23
2022-09-09T23:03:22.291Z,5.40
2022-09-09T23:05:57.382Z,6.23
2022-09-09T23:08:26.536Z,4.40
2022-09-09T23:10:55.717Z,5.90
2022-09-09T23:13:24.100Z,6.40
2022-09-09T23:15:52.176Z,4.33
2022-09-09T23:18:26.799Z,4.63
2022-09-09T23:21:00.374Z,4.83
2022-09-09T23:23:29.035Z,5.33
2022-09-09T23:25:56.718Z,5.40
2022-09-09T23:28:24.457Z,4.67
2022-09-09T23:30:52.206Z,5.03
2022-09-09T23:33:21.334Z,5.93
2022-09-09T23:35:49.069Z,5.27
2022-09-09T23:38:16.763Z,4.80
2022-09-09T23:40:47.070Z,5.40
2022-09-09T23:43:14.840Z,4.90
2022-09-09T23:45:42.542Z,5.40
2022-09-09T23:48:10.340Z,6.70
2022-09-09T23:50:39.356Z,5.90
2022-09-09T23:53:08.346Z,5.23
2022-09-09T23:55:36.145Z,4.20
2022-09-09T23:58:03.907Z,5.67
